Aérodrome :
LOGIN :

S'inscrire | Disclaimer

   EN    FR    IT 

 










Légende :    VFR   VFR Marginal   IFR   IFR Intensif   IFR Très Intensif
Visi : 
Plafond : 
>= 8 km
>= 3000ft
5 à 8 km
1000 à 3000 ft
1500m à 5 km
500 à 1000 ft
800 à 1500m
200 à 500 ft
< 800m
< 200 ft
Symboles :   Orages  Brouillard  Fortes neiges  Fortes précipitations  Vent > 20 kt
SIGMETs :   Divers  Orages  Givrage  Turbulence  Onde Orograph.  Cendres Volcan.






- Altitude de l'aérodrome : 313 ft
- Code IATA : LEH


LFOH - Le Havre Octeville

DERNIER METAR :
  • 110630Z AUTO 03010KT CAVOK 16/10 Q1026 NOSIG

METARs EXPIRÉS :
  • 110600Z AUTO 04007KT CAVOK 15/11 Q1025 NOSIG
  • 110530Z AUTO 03005KT CAVOK 15/11 Q1025
  • 110500Z AUTO 03006KT CAVOK 13/10 Q1025
  • 110430Z AUTO 03008KT CAVOK 13/10 Q1025
  • 110400Z AUTO 02008KT CAVOK 13/09 Q1024

TAF TAF LFOH
Valide du 11 à 06h jusqu'au 12 à 06h UTC


110500Z 1106/1206 35010KT CAVOK
BECMG 1200/1203 08008KT
ATIS : +33 2 35 54 64 93



MET'MAP, la Météo Aéronautique d'un coup d'oeil ! - Copyright ORBIFLY Décembre 2007 - Disclaimer

ORBIFLY MET'MAP TEAM :

Programmation & Développement : Alexandra Zaïnal
Sur une idée originale de : Baudouin d'Aumeries
Assistance à la programmation : Marc-Olivier Méhu
Soutien technique & logistique : Manuel Goepfert

Contact : metmap@orbifly.com




SOURCES & CREDITS :

   NOAA